createdAt,value
2018-03-31T09:16:05.924Z,10.00
2018-03-31T09:18:33.184Z,10.00
2018-03-31T09:30:23.752Z,10.10
2018-03-31T09:35:27.827Z,10.30
2018-03-31T09:37:55.602Z,10.70
2018-03-31T09:40:23.372Z,10.80
2018-03-31T09:42:51.296Z,10.60
2018-03-31T09:45:18.268Z,10.50
2018-03-31T09:47:46.853Z,10.50
2018-03-31T09:50:14.608Z,10.50
2018-03-31T09:52:41.601Z,10.60
2018-03-31T09:55:08.789Z,10.70
2018-03-31T09:57:36.744Z,10.70
2018-03-31T10:00:03.803Z,11.00
2018-03-31T10:02:32.460Z,13.00
2018-03-31T10:05:00.263Z,11.30
2018-03-31T10:07:27.248Z,11.30
2018-03-31T10:09:54.212Z,11.20
2018-03-31T10:12:21.176Z,11.10
2018-03-31T10:14:48.647Z,11.50
2018-03-31T10:17:15.635Z,12.30
2018-03-31T10:19:42.612Z,12.10
2018-03-31T10:22:09.565Z,12.30
2018-03-31T10:24:36.528Z,12.70
2018-03-31T10:27:03.483Z,12.70
2018-03-31T10:29:30.468Z,12.80
2018-03-31T10:31:57.442Z,13.20
2018-03-31T10:34:24.410Z,13.30
2018-03-31T10:36:51.368Z,13.80
2018-03-31T10:39:19.108Z,13.00
2018-03-31T10:41:46.150Z,13.00
2018-03-31T10:44:13.067Z,13.10
2018-03-31T10:46:40.036Z,14.30
2018-03-31T10:49:07.009Z,14.40
2018-03-31T10:51:34.835Z,13.60
2018-03-31T10:54:02.507Z,14.80
2018-03-31T10:56:29.465Z,13.90
2018-03-31T10:58:56.435Z,13.70
2018-03-31T11:01:23.420Z,14.10
2018-03-31T11:03:50.400Z,14.10
2018-03-31T11:06:17.376Z,14.40
2018-03-31T11:08:45.110Z,16.40
2018-03-31T11:11:11.868Z,15.70
2018-03-31T11:13:39.603Z,14.60
2018-03-31T11:16:06.581Z,14.60
2018-03-31T11:18:34.319Z,14.60
2018-03-31T11:21:01.295Z,14.60
2018-03-31T11:23:28.819Z,16.20
2018-03-31T11:25:55.599Z,16.10
2018-03-31T11:28:22.581Z,16.60
2018-03-31T11:30:49.541Z,16.90
2018-03-31T11:33:16.504Z,17.10
2018-03-31T11:35:43.268Z,17.10
2018-03-31T11:38:10.025Z,17.10
2018-03-31T11:40:37.003Z,17.30
2018-03-31T11:43:03.767Z,16.10
2018-03-31T11:45:30.531Z,15.30
2018-03-31T11:47:58.900Z,14.60
2018-03-31T11:50:26.648Z,14.90
2018-03-31T11:52:53.611Z,14.90
2018-03-31T11:55:21.347Z,16.00
2018-03-31T11:57:48.105Z,16.00
2018-03-31T12:00:14.910Z,15.60
2018-03-31T12:02:41.871Z,15.20
2018-03-31T12:05:08.831Z,15.30
2018-03-31T12:07:36.579Z,15.80
2018-03-31T12:10:03.544Z,15.80
2018-03-31T12:12:31.092Z,16.50
2018-03-31T12:14:58.048Z,16.50
2018-03-31T12:17:25.783Z,16.60
2018-03-31T12:19:52.539Z,16.60
2018-03-31T12:22:20.096Z,15.70
2018-03-31T12:24:47.654Z,15.90
2018-03-31T12:27:15.199Z,15.40
2018-03-31T12:29:41.963Z,15.40
2018-03-31T12:32:08.740Z,16.30
2018-03-31T12:34:35.502Z,16.30
2018-03-31T12:37:02.291Z,16.50
2018-03-31T12:39:29.062Z,16.30
2018-03-31T12:41:55.827Z,15.60
2018-03-31T12:44:22.606Z,15.70
2018-03-31T12:46:50.150Z,14.20
2018-03-31T12:49:16.907Z,14.10
2018-03-31T12:51:44.657Z,15.00
2018-03-31T12:54:11.608Z,15.00
2018-03-31T12:56:39.357Z,15.40
2018-03-31T12:59:06.322Z,15.40
2018-03-31T13:01:33.288Z,14.20
2018-03-31T13:04:00.267Z,14.80
2018-03-31T13:06:27.236Z,15.30
2018-03-31T13:09:00.175Z,15.60
2018-03-31T13:11:27.136Z,16.00
2018-03-31T13:13:54.110Z,15.90
2018-03-31T13:16:21.124Z,16.40
2018-03-31T13:18:48.064Z,17.00
2018-03-31T13:21:15.033Z,16.40
2018-03-31T13:23:42.000Z,16.30
2018-03-31T13:26:09.735Z,16.20
2018-03-31T13:28:36.704Z,16.20
2018-03-31T13:31:03.667Z,16.00
2018-03-31T13:33:31.407Z,15.80
2018-03-31T13:35:58.361Z,15.80
2018-03-31T13:38:26.112Z,15.70
2018-03-31T13:40:53.063Z,15.70
2018-03-31T13:43:20.032Z,15.50
2018-03-31T13:45:47.755Z,16.10
2018-03-31T13:48:14.738Z,16.10
2018-03-31T13:50:42.469Z,15.70
2018-03-31T13:53:09.440Z,15.80
2018-03-31T13:55:37.173Z,15.70
2018-03-31T13:58:04.151Z,15.70
2018-03-31T14:00:31.883Z,15.80
2018-03-31T14:02:58.847Z,15.80
2018-03-31T14:05:26.579Z,15.60
2018-03-31T14:07:53.552Z,15.60
2018-03-31T14:10:21.280Z,15.10
2018-03-31T14:12:48.635Z,15.60
2018-03-31T14:15:15.596Z,15.50
2018-03-31T14:17:42.551Z,15.10
2018-03-31T14:20:09.521Z,15.40
2018-03-31T14:22:36.503Z,15.60
2018-03-31T14:25:03.476Z,15.60
2018-03-31T14:27:30.437Z,15.40
2018-03-31T14:29:58.209Z,15.00
2018-03-31T14:32:25.200Z,14.90
2018-03-31T14:34:52.191Z,15.00
2018-03-31T14:37:19.916Z,14.90
2018-03-31T14:39:46.888Z,14.90
2018-03-31T14:42:13.847Z,15.00
2018-03-31T14:44:40.834Z,14.80
2018-03-31T14:47:07.800Z,14.80
2018-03-31T14:49:34.768Z,14.70
2018-03-31T14:52:01.728Z,14.90
2018-03-31T14:54:28.720Z,15.00
2018-03-31T14:56:55.685Z,14.70
2018-03-31T14:59:22.652Z,14.60
2018-03-31T15:01:49.603Z,14.40
2018-03-31T15:04:17.359Z,13.60
2018-03-31T15:06:44.316Z,13.60
2018-03-31T15:09:11.299Z,13.60
2018-03-31T15:11:38.263Z,14.00
2018-03-31T15:14:05.250Z,14.00
2018-03-31T15:16:33.325Z,14.30
2018-03-31T15:19:01.274Z,14.30
2018-03-31T15:21:29.068Z,14.40
2018-03-31T15:23:56.049Z,14.10
2018-03-31T15:26:23.011Z,13.90
2018-03-31T15:28:49.975Z,14.00
2018-03-31T15:31:16.936Z,14.00
2018-03-31T15:33:44.879Z,13.50
2018-03-31T15:36:11.850Z,13.20
2018-03-31T15:38:38.824Z,13.20
2018-03-31T15:41:06.073Z,13.00
2018-03-31T15:43:33.044Z,12.80
2018-03-31T15:46:00.079Z,12.40
2018-03-31T15:48:27.080Z,12.40
2018-03-31T15:50:54.048Z,12.30
2018-03-31T15:53:21.012Z,12.20
2018-03-31T15:55:48.243Z,12.10
2018-03-31T15:58:15.250Z,12.00
2018-03-31T16:00:42.359Z,12.00
2018-03-31T16:03:09.394Z,12.00
2018-03-31T16:05:36.392Z,11.90
2018-03-31T16:08:03.397Z,12.00
2018-03-31T16:10:30.402Z,11.90
2018-03-31T16:12:57.391Z,11.90
2018-03-31T16:15:24.448Z,11.80
2018-03-31T16:17:51.745Z,11.80
2018-03-31T16:20:19.136Z,11.80
2018-03-31T16:22:46.136Z,11.80
2018-03-31T16:25:13.889Z,11.90
2018-03-31T16:27:40.935Z,11.90
2018-03-31T16:30:07.904Z,11.90
2018-03-31T16:32:34.890Z,11.90
2018-03-31T16:35:01.865Z,11.90
2018-03-31T16:37:28.860Z,11.90
2018-03-31T16:39:55.908Z,11.90
2018-03-31T16:42:28.476Z,11.90
2018-03-31T16:47:26.971Z,11.80
2018-03-31T16:49:54.477Z,11.70
2018-03-31T16:52:31.203Z,11.70
2018-03-31T16:54:58.592Z,11.60
2018-03-31T16:57:25.685Z,11.60
2018-03-31T16:59:52.765Z,11.60
2018-03-31T17:20:36.563Z,11.10
2018-03-31T17:28:30.696Z,10.80
2018-03-31T17:33:36.223Z,10.60
2018-03-31T17:50:03.288Z,9.90
